This is the latest recevied weather packets stored in our database for station/object DB0RV-13. If no packets are shown the sender has not sent any weather packets the latest 10 day(s).
| Time | Temp. | Humidity | Pressure | Rain* | Wind** | Luminosity | Snow |
|---|---|---|---|---|---|---|---|
| 1777757101 | 14.44° C | 57% | 1015.8 hPa | - | - | - | - |
| 1777756802 | 15° C | 55% | 1015.9 hPa | - | - | - | - |
| 1777756502 | 15.56° C | 52% | 1016 hPa | - | - | - | - |
| 1777756201 | 16.67° C | 50% | 1016 hPa | - | - | - | - |
| 1777755902 | 16.67° C | 50% | 1016 hPa | - | - | - | - |
| 1777755602 | 15.56° C | 52% | 1016 hPa | - | - | - | - |
| 1777755301 | 16.11° C | 52% | 1016 hPa | - | - | - | - |
| 1777755001 | 16.11° C | 52% | 1016.1 hPa | - | - | - | - |
| 1777754702 | 15.56° C | 54% | 1016.2 hPa | - | - | - | - |
| 1777754401 | 15.56° C | 53% | 1016.1 hPa | - | - | - | - |
| 1777754101 | 15.56° C | 52% | 1016.2 hPa | - | - | - | - |
| 1777753802 | 16.67° C | 49% | 1016.2 hPa | - | - | - | - |
| 1777753501 | 17.22° C | 47% | 1016.1 hPa | - | - | - | - |
| 1777753202 | 17.22° C | 47% | 1016.2 hPa | - | - | - | - |
| 1777752902 | 17.22° C | 48% | 1016.2 hPa | - | - | - | - |
| 1777752601 | 17.22° C | 48% | 1016.2 hPa | - | - | - | - |
| 1777752302 | 17.78° C | 47% | 1016.4 hPa | - | - | - | - |
| 1777752002 | 17.78° C | 48% | 1016.4 hPa | - | - | - | - |
| 1777751701 | 17.22° C | 51% | 1016.4 hPa | - | - | - | - |
| 1777751402 | 17.78° C | 47% | 1016.3 hPa | - | - | - | - |
| 1777751104 | 18.89° C | 45% | 1016.3 hPa | - | - | - | - |
| 1777750802 | 18.33° C | 47% | 1016.3 hPa | - | - | - | - |
| 1777750502 | 17.22° C | 51% | 1016.3 hPa | - | - | - | - |
| 1777750202 | 18.33° C | 47% | 1016.3 hPa | - | - | - | - |
| 1777749901 | 18.33° C | 44% | 1016.3 hPa | - | - | - | - |
* Rain since midnight (hover to see other rain measurements)
** Current wind speed in m/s (hover to see current wind gust speed)